sensor_id;sensor_type;location;lat;lon;timestamp;temperature;humidity
57108;DHT22;42987;52.916;6.542;2022-08-21T00:00:12;15.80;99.90
57108;DHT22;42987;52.916;6.542;2022-08-21T00:02:47;15.80;99.90
57108;DHT22;42987;52.916;6.542;2022-08-21T00:05:14;15.80;99.90
57108;DHT22;42987;52.916;6.542;2022-08-21T00:07:40;15.80;99.90
57108;DHT22;42987;52.916;6.542;2022-08-21T00:10:10;15.80;99.90
57108;DHT22;42987;52.916;6.542;2022-08-21T00:12:37;15.80;99.90
57108;DHT22;42987;52.916;6.542;2022-08-21T00:15:05;15.70;99.90
57108;DHT22;42987;52.916;6.542;2022-08-21T00:17:31;15.70;99.90
57108;DHT22;42987;52.916;6.542;2022-08-21T00:20:00;15.70;99.90
57108;DHT22;42987;52.916;6.542;2022-08-21T00:22:29;15.70;99.90
57108;DHT22;42987;52.916;6.542;2022-08-21T00:24:58;15.60;99.90
57108;DHT22;42987;52.916;6.542;2022-08-21T00:27:24;15.60;99.90
57108;DHT22;42987;52.916;6.542;2022-08-21T00:29:50;15.50;99.90
57108;DHT22;42987;52.916;6.542;2022-08-21T00:32:24;15.50;99.90
57108;DHT22;42987;52.916;6.542;2022-08-21T00:34:50;15.50;99.90
57108;DHT22;42987;52.916;6.542;2022-08-21T00:37:16;15.50;99.90
57108;DHT22;42987;52.916;6.542;2022-08-21T00:39:42;15.40;99.90
57108;DHT22;42987;52.916;6.542;2022-08-21T00:42:09;15.40;99.90
57108;DHT22;42987;52.916;6.542;2022-08-21T00:44:35;15.40;99.90
57108;DHT22;42987;52.916;6.542;2022-08-21T00:47:06;15.30;99.90
57108;DHT22;42987;52.916;6.542;2022-08-21T00:49:33;15.10;99.90
57108;DHT22;42987;52.916;6.542;2022-08-21T00:52:01;15.00;99.90
57108;DHT22;42987;52.916;6.542;2022-08-21T00:54:30;14.90;99.90
57108;DHT22;42987;52.916;6.542;2022-08-21T00:57:00;14.90;99.90
57108;DHT22;42987;52.916;6.542;2022-08-21T00:59:26;14.80;99.90
57108;DHT22;42987;52.916;6.542;2022-08-21T01:01:54;14.70;99.90
57108;DHT22;42987;52.916;6.542;2022-08-21T01:04:26;14.70;99.90
57108;DHT22;42987;52.916;6.542;2022-08-21T01:06:52;14.70;99.90
57108;DHT22;42987;52.916;6.542;2022-08-21T01:09:23;14.70;99.90
57108;DHT22;42987;52.916;6.542;2022-08-21T01:11:49;14.70;99.90
57108;DHT22;42987;52.916;6.542;2022-08-21T01:14:14;14.70;99.90
57108;DHT22;42987;52.916;6.542;2022-08-21T01:16:46;14.60;99.90
57108;DHT22;42987;52.916;6.542;2022-08-21T01:19:13;14.60;99.90
57108;DHT22;42987;52.916;6.542;2022-08-21T01:21:40;14.60;99.90
57108;DHT22;42987;52.916;6.542;2022-08-21T01:24:12;14.50;99.90
57108;DHT22;42987;52.916;6.542;2022-08-21T01:26:39;14.40;99.90
57108;DHT22;42987;52.916;6.542;2022-08-21T01:29:22;14.40;99.90
57108;DHT22;42987;52.916;6.542;2022-08-21T01:31:51;14.30;99.90
57108;DHT22;42987;52.916;6.542;2022-08-21T01:34:17;14.20;99.90
57108;DHT22;42987;52.916;6.542;2022-08-21T01:36:44;14.20;99.90
57108;DHT22;42987;52.916;6.542;2022-08-21T01:39:11;14.20;99.90
57108;DHT22;42987;52.916;6.542;2022-08-21T01:41:36;14.10;99.90
57108;DHT22;42987;52.916;6.542;2022-08-21T01:44:02;14.10;99.90
57108;DHT22;42987;52.916;6.542;2022-08-21T01:46:28;14.00;99.90
57108;DHT22;42987;52.916;6.542;2022-08-21T01:48:54;14.00;99.90
57108;DHT22;42987;52.916;6.542;2022-08-21T01:51:20;14.00;99.90
57108;DHT22;42987;52.916;6.542;2022-08-21T01:53:46;13.90;99.90
57108;DHT22;42987;52.916;6.542;2022-08-21T01:56:16;13.90;99.90
57108;DHT22;42987;52.916;6.542;2022-08-21T01:58:43;13.90;99.90
57108;DHT22;42987;52.916;6.542;2022-08-21T02:01:10;13.90;99.90
57108;DHT22;42987;52.916;6.542;2022-08-21T02:03:37;13.90;99.90
57108;DHT22;42987;52.916;6.542;2022-08-21T02:06:14;13.90;99.90
57108;DHT22;42987;52.916;6.542;2022-08-21T02:08:40;13.90;99.90
57108;DHT22;42987;52.916;6.542;2022-08-21T02:11:06;13.90;99.90
57108;DHT22;42987;52.916;6.542;2022-08-21T02:13:32;13.80;99.90
57108;DHT22;42987;52.916;6.542;2022-08-21T02:15:58;13.70;99.90
57108;DHT22;42987;52.916;6.542;2022-08-21T02:18:26;13.70;99.90
57108;DHT22;42987;52.916;6.542;2022-08-21T02:20:52;13.60;99.90
57108;DHT22;42987;52.916;6.542;2022-08-21T02:23:18;13.60;99.90
57108;DHT22;42987;52.916;6.542;2022-08-21T02:25:44;13.60;99.90
57108;DHT22;42987;52.916;6.542;2022-08-21T02:28:14;13.60;99.90
57108;DHT22;42987;52.916;6.542;2022-08-21T02:30:43;13.60;99.90
57108;DHT22;42987;52.916;6.542;2022-08-21T02:33:10;13.60;99.90
57108;DHT22;42987;52.916;6.542;2022-08-21T02:35:38;13.60;99.90
57108;DHT22;42987;52.916;6.542;2022-08-21T02:38:08;13.60;99.90
57108;DHT22;42987;52.916;6.542;2022-08-21T02:40:39;13.60;99.90
57108;DHT22;42987;52.916;6.542;2022-08-21T02:43:07;13.60;99.90
57108;DHT22;42987;52.916;6.542;2022-08-21T02:45:42;13.70;99.90
57108;DHT22;42987;52.916;6.542;2022-08-21T02:48:12;13.70;99.90
57108;DHT22;42987;52.916;6.542;2022-08-21T02:51:14;13.80;99.90
57108;DHT22;42987;52.916;6.542;2022-08-21T02:56:29;13.90;99.90
57108;DHT22;42987;52.916;6.542;2022-08-21T02:58:55;14.00;99.90
57108;DHT22;42987;52.916;6.542;2022-08-21T03:01:20;14.00;99.90
57108;DHT22;42987;52.916;6.542;2022-08-21T03:03:47;14.10;99.90
57108;DHT22;42987;52.916;6.542;2022-08-21T03:06:19;14.10;99.90
57108;DHT22;42987;52.916;6.542;2022-08-21T03:08:45;14.10;99.90
57108;DHT22;42987;52.916;6.542;2022-08-21T03:11:12;14.10;99.90
57108;DHT22;42987;52.916;6.542;2022-08-21T03:13:38;14.10;99.90
57108;DHT22;42987;52.916;6.542;2022-08-21T03:16:04;14.20;99.90
57108;DHT22;42987;52.916;6.542;2022-08-21T03:18:34;14.20;99.90
57108;DHT22;42987;52.916;6.542;2022-08-21T03:21:01;14.20;99.90
57108;DHT22;42987;52.916;6.542;2022-08-21T03:23:27;14.10;99.90
57108;DHT22;42987;52.916;6.542;2022-08-21T03:25:52;14.10;99.90
57108;DHT22;42987;52.916;6.542;2022-08-21T03:28:22;14.10;99.90
57108;DHT22;42987;52.916;6.542;2022-08-21T03:30:49;14.20;99.90
57108;DHT22;42987;52.916;6.542;2022-08-21T03:33:16;14.10;99.90
57108;DHT22;42987;52.916;6.542;2022-08-21T03:35:45;14.20;99.90
57108;DHT22;42987;52.916;6.542;2022-08-21T03:38:13;14.10;99.90
57108;DHT22;42987;52.916;6.542;2022-08-21T03:40:39;14.20;99.90
57108;DHT22;42987;52.916;6.542;2022-08-21T03:43:14;14.10;99.90
57108;DHT22;42987;52.916;6.542;2022-08-21T03:45:42;14.10;99.90
57108;DHT22;42987;52.916;6.542;2022-08-21T03:48:08;14.10;99.90
57108;DHT22;42987;52.916;6.542;2022-08-21T03:50:37;14.10;99.90
57108;DHT22;42987;52.916;6.542;2022-08-21T03:53:14;14.10;99.90
57108;DHT22;42987;52.916;6.542;2022-08-21T03:55:41;14.20;99.90
57108;DHT22;42987;52.916;6.542;2022-08-21T03:58:10;14.10;99.90
57108;DHT22;42987;52.916;6.542;2022-08-21T04:00:36;14.20;99.90
57108;DHT22;42987;52.916;6.542;2022-08-21T04:03:03;14.20;99.90
57108;DHT22;42987;52.916;6.542;2022-08-21T04:05:44;14.20;99.90
57108;DHT22;42987;52.916;6.542;2022-08-21T04:08:12;14.20;99.90
57108;DHT22;42987;52.916;6.542;2022-08-21T04:10:47;14.20;99.90
57108;DHT22;42987;52.916;6.542;2022-08-21T04:13:14;14.20;99.90
57108;DHT22;42987;52.916;6.542;2022-08-21T04:15:45;14.20;99.90
57108;DHT22;42987;52.916;6.542;2022-08-21T04:18:17;14.20;99.90
57108;DHT22;42987;52.916;6.542;2022-08-21T04:20:57;14.20;99.90
57108;DHT22;42987;52.916;6.542;2022-08-21T04:23:31;14.10;99.90
57108;DHT22;42987;52.916;6.542;2022-08-21T04:25:58;14.10;99.90
57108;DHT22;42987;52.916;6.542;2022-08-21T04:28:26;14.10;99.90
57108;DHT22;42987;52.916;6.542;2022-08-21T04:30:53;14.10;99.90
57108;DHT22;42987;52.916;6.542;2022-08-21T04:33:38;14.10;99.90
57108;DHT22;42987;52.916;6.542;2022-08-21T04:36:07;14.10;99.90
57108;DHT22;42987;52.916;6.542;2022-08-21T04:38:33;14.20;99.90
57108;DHT22;42987;52.916;6.542;2022-08-21T04:41:05;14.10;99.90
57108;DHT22;42987;52.916;6.542;2022-08-21T04:43:38;14.10;99.90
57108;DHT22;42987;52.916;6.542;2022-08-21T04:46:11;14.10;99.90
57108;DHT22;42987;52.916;6.542;2022-08-21T04:48:46;14.20;99.90
57108;DHT22;42987;52.916;6.542;2022-08-21T04:51:17;14.20;99.90
57108;DHT22;42987;52.916;6.542;2022-08-21T04:54:14;14.10;99.90
57108;DHT22;42987;52.916;6.542;2022-08-21T04:57:07;14.20;99.90
57108;DHT22;42987;52.916;6.542;2022-08-21T04:59:46;14.20;99.90
57108;DHT22;42987;52.916;6.542;2022-08-21T05:02:21;14.20;99.90
57108;DHT22;42987;52.916;6.542;2022-08-21T05:05:00;14.20;99.90
57108;DHT22;42987;52.916;6.542;2022-08-21T05:07:44;14.20;99.90
57108;DHT22;42987;52.916;6.542;2022-08-21T05:10:16;14.20;99.90
57108;DHT22;42987;52.916;6.542;2022-08-21T05:12:47;14.20;99.90
57108;DHT22;42987;52.916;6.542;2022-08-21T05:16:04;14.30;99.90
57108;DHT22;42987;52.916;6.542;2022-08-21T05:19:07;14.30;99.90
57108;DHT22;42987;52.916;6.542;2022-08-21T05:21:43;14.40;99.90
57108;DHT22;42987;52.916;6.542;2022-08-21T05:24:21;14.40;99.90
57108;DHT22;42987;52.916;6.542;2022-08-21T05:26:49;14.40;99.90
57108;DHT22;42987;52.916;6.542;2022-08-21T05:29:42;14.40;99.90
57108;DHT22;42987;52.916;6.542;2022-08-21T05:32:14;14.50;99.90
57108;DHT22;42987;52.916;6.542;2022-08-21T05:35:03;14.50;99.90
57108;DHT22;42987;52.916;6.542;2022-08-21T05:37:50;14.50;99.90
57108;DHT22;42987;52.916;6.542;2022-08-21T05:40:30;14.50;99.90
57108;DHT22;42987;52.916;6.542;2022-08-21T05:46:13;14.70;99.90
57108;DHT22;42987;52.916;6.542;2022-08-21T05:49:10;14.70;99.90
57108;DHT22;42987;52.916;6.542;2022-08-21T05:51:42;14.70;99.90
57108;DHT22;42987;52.916;6.542;2022-08-21T05:54:43;14.80;99.90
57108;DHT22;42987;52.916;6.542;2022-08-21T05:57:12;14.90;99.90
57108;DHT22;42987;52.916;6.542;2022-08-21T06:06:24;15.10;99.90
57108;DHT22;42987;52.916;6.542;2022-08-21T06:12:12;15.30;99.90
57108;DHT22;42987;52.916;6.542;2022-08-21T06:14:47;15.40;99.90
57108;DHT22;42987;52.916;6.542;2022-08-21T06:17:33;15.40;99.90
57108;DHT22;42987;52.916;6.542;2022-08-21T06:19:59;15.50;99.90
57108;DHT22;42987;52.916;6.542;2022-08-21T06:22:45;15.60;99.90
57108;DHT22;42987;52.916;6.542;2022-08-21T06:25:14;15.70;99.90
57108;DHT22;42987;52.916;6.542;2022-08-21T06:28:14;15.80;99.90
57108;DHT22;42987;52.916;6.542;2022-08-21T06:33:59;15.90;99.90
57108;DHT22;42987;52.916;6.542;2022-08-21T06:39:52;16.20;99.90
57108;DHT22;42987;52.916;6.542;2022-08-21T06:42:18;16.30;99.90
57108;DHT22;42987;52.916;6.542;2022-08-21T06:44:59;16.30;99.90
57108;DHT22;42987;52.916;6.542;2022-08-21T06:47:28;16.50;99.90
57108;DHT22;42987;52.916;6.542;2022-08-21T06:50:16;16.60;99.90
57108;DHT22;42987;52.916;6.542;2022-08-21T06:53:22;16.70;99.90
57108;DHT22;42987;52.916;6.542;2022-08-21T06:56:04;16.80;99.90
57108;DHT22;42987;52.916;6.542;2022-08-21T07:02:07;17.00;99.90
57108;DHT22;42987;52.916;6.542;2022-08-21T07:08:42;17.20;99.90
57108;DHT22;42987;52.916;6.542;2022-08-21T07:11:14;17.30;99.90
57108;DHT22;42987;52.916;6.542;2022-08-21T07:13:42;17.40;99.90
57108;DHT22;42987;52.916;6.542;2022-08-21T07:16:08;17.50;99.90
57108;DHT22;42987;52.916;6.542;2022-08-21T07:18:34;17.60;99.90
57108;DHT22;42987;52.916;6.542;2022-08-21T07:21:08;17.70;99.90
57108;DHT22;42987;52.916;6.542;2022-08-21T07:23:42;17.90;99.90
57108;DHT22;42987;52.916;6.542;2022-08-21T07:26:08;18.00;99.90
57108;DHT22;42987;52.916;6.542;2022-08-21T07:28:34;18.20;99.90
57108;DHT22;42987;52.916;6.542;2022-08-21T07:31:01;18.30;99.90
57108;DHT22;42987;52.916;6.542;2022-08-21T07:33:30;18.40;99.90
57108;DHT22;42987;52.916;6.542;2022-08-21T07:35:56;18.60;99.90
57108;DHT22;42987;52.916;6.542;2022-08-21T07:38:22;18.70;99.90
57108;DHT22;42987;52.916;6.542;2022-08-21T07:40:49;18.80;99.90
57108;DHT22;42987;52.916;6.542;2022-08-21T07:43:16;18.90;99.90
57108;DHT22;42987;52.916;6.542;2022-08-21T07:45:47;19.00;99.90
57108;DHT22;42987;52.916;6.542;2022-08-21T07:48:21;19.20;99.90
57108;DHT22;42987;52.916;6.542;2022-08-21T07:50:47;19.30;99.90
57108;DHT22;42987;52.916;6.542;2022-08-21T07:53:14;19.40;99.90
57108;DHT22;42987;52.916;6.542;2022-08-21T07:55:40;19.40;99.90
57108;DHT22;42987;52.916;6.542;2022-08-21T07:58:09;19.50;99.90
57108;DHT22;42987;52.916;6.542;2022-08-21T08:00:34;19.60;99.90
57108;DHT22;42987;52.916;6.542;2022-08-21T08:03:01;19.80;99.90
57108;DHT22;42987;52.916;6.542;2022-08-21T08:05:29;19.90;99.90
57108;DHT22;42987;52.916;6.542;2022-08-21T08:07:56;20.00;99.90
57108;DHT22;42987;52.916;6.542;2022-08-21T08:10:23;20.20;99.90
57108;DHT22;42987;52.916;6.542;2022-08-21T08:12:49;20.30;99.90
57108;DHT22;42987;52.916;6.542;2022-08-21T08:15:19;20.30;99.90
57108;DHT22;42987;52.916;6.542;2022-08-21T08:17:52;20.30;99.90
57108;DHT22;42987;52.916;6.542;2022-08-21T08:20:18;20.40;99.90
57108;DHT22;42987;52.916;6.542;2022-08-21T08:22:48;20.40;99.90
57108;DHT22;42987;52.916;6.542;2022-08-21T08:25:15;20.50;99.90
57108;DHT22;42987;52.916;6.542;2022-08-21T08:27:42;20.60;99.90
57108;DHT22;42987;52.916;6.542;2022-08-21T08:30:10;20.70;99.90
57108;DHT22;42987;52.916;6.542;2022-08-21T08:32:40;20.80;99.90
57108;DHT22;42987;52.916;6.542;2022-08-21T08:35:08;21.00;99.90
57108;DHT22;42987;52.916;6.542;2022-08-21T08:37:35;21.10;99.90
57108;DHT22;42987;52.916;6.542;2022-08-21T08:40:22;21.30;99.90
57108;DHT22;42987;52.916;6.542;2022-08-21T08:42:50;21.40;99.90
57108;DHT22;42987;52.916;6.542;2022-08-21T08:45:19;21.50;99.90
57108;DHT22;42987;52.916;6.542;2022-08-21T08:47:53;21.50;99.90
57108;DHT22;42987;52.916;6.542;2022-08-21T08:50:44;21.50;99.90
57108;DHT22;42987;52.916;6.542;2022-08-21T08:53:25;21.60;99.90
57108;DHT22;42987;52.916;6.542;2022-08-21T08:55:54;21.80;99.90
57108;DHT22;42987;52.916;6.542;2022-08-21T08:58:34;21.90;99.90
57108;DHT22;42987;52.916;6.542;2022-08-21T09:01:08;22.00;99.90
57108;DHT22;42987;52.916;6.542;2022-08-21T09:03:40;22.00;99.90
57108;DHT22;42987;52.916;6.542;2022-08-21T09:12:02;22.40;99.90
57108;DHT22;42987;52.916;6.542;2022-08-21T09:14:58;22.50;99.90
57108;DHT22;42987;52.916;6.542;2022-08-21T09:25:31;22.70;99.90
57108;DHT22;42987;52.916;6.542;2022-08-21T09:27:58;22.80;99.90
57108;DHT22;42987;52.916;6.542;2022-08-21T09:30:31;22.80;99.90
57108;DHT22;42987;52.916;6.542;2022-08-21T09:33:00;23.00;99.90
57108;DHT22;42987;52.916;6.542;2022-08-21T09:35:26;23.20;99.90
57108;DHT22;42987;52.916;6.542;2022-08-21T09:37:56;23.20;99.90
57108;DHT22;42987;52.916;6.542;2022-08-21T09:40:35;23.40;99.90
57108;DHT22;42987;52.916;6.542;2022-08-21T09:45:41;23.40;99.90
57108;DHT22;42987;52.916;6.542;2022-08-21T09:50:34;23.50;99.90
57108;DHT22;42987;52.916;6.542;2022-08-21T09:53:00;23.50;99.90
57108;DHT22;42987;52.916;6.542;2022-08-21T09:55:39;23.40;99.90
57108;DHT22;42987;52.916;6.542;2022-08-21T09:58:35;23.40;99.90
57108;DHT22;42987;52.916;6.542;2022-08-21T10:01:04;23.50;99.90
57108;DHT22;42987;52.916;6.542;2022-08-21T10:03:34;23.70;99.90
57108;DHT22;42987;52.916;6.542;2022-08-21T10:06:05;23.80;99.90
57108;DHT22;42987;52.916;6.542;2022-08-21T10:08:36;24.00;99.90
57108;DHT22;42987;52.916;6.542;2022-08-21T10:13:59;24.20;99.90
57108;DHT22;42987;52.916;6.542;2022-08-21T10:16:45;24.40;99.90
57108;DHT22;42987;52.916;6.542;2022-08-21T10:28:16;24.30;99.20
57108;DHT22;42987;52.916;6.542;2022-08-21T10:36:35;23.90;99.90
57108;DHT22;42987;52.916;6.542;2022-08-21T10:39:25;23.90;99.90
57108;DHT22;42987;52.916;6.542;2022-08-21T10:42:51;23.70;99.90
57108;DHT22;42987;52.916;6.542;2022-08-21T10:47:54;23.60;99.90
57108;DHT22;42987;52.916;6.542;2022-08-21T10:53:59;23.50;99.90
57108;DHT22;42987;52.916;6.542;2022-08-21T10:56:33;23.80;99.90
57108;DHT22;42987;52.916;6.542;2022-08-21T10:59:33;24.00;99.90
57108;DHT22;42987;52.916;6.542;2022-08-21T11:02:29;24.20;99.10
57108;DHT22;42987;52.916;6.542;2022-08-21T11:08:12;24.20;97.80
57108;DHT22;42987;52.916;6.542;2022-08-21T11:10:46;24.40;99.90
57108;DHT22;42987;52.916;6.542;2022-08-21T11:13:43;24.50;98.00
57108;DHT22;42987;52.916;6.542;2022-08-21T11:27:17;25.10;95.30
57108;DHT22;42987;52.916;6.542;2022-08-21T11:29:49;25.20;95.20
57108;DHT22;42987;52.916;6.542;2022-08-21T11:40:44;24.80;94.10
57108;DHT22;42987;52.916;6.542;2022-08-21T11:45:54;25.20;92.70
57108;DHT22;42987;52.916;6.542;2022-08-21T11:51:13;25.50;93.00
57108;DHT22;42987;52.916;6.542;2022-08-21T11:56:42;25.60;89.60
57108;DHT22;42987;52.916;6.542;2022-08-21T11:59:14;25.70;89.90
57108;DHT22;42987;52.916;6.542;2022-08-21T12:01:46;25.80;90.00
57108;DHT22;42987;52.916;6.542;2022-08-21T12:04:28;25.80;89.90
57108;DHT22;42987;52.916;6.542;2022-08-21T12:06:56;26.00;90.10
57108;DHT22;42987;52.916;6.542;2022-08-21T12:12:45;25.60;91.30
57108;DHT22;42987;52.916;6.542;2022-08-21T12:14:50;25.40;90.50
57108;DHT22;42987;52.916;6.542;2022-08-21T12:17:20;25.20;90.00
57108;DHT22;42987;52.916;6.542;2022-08-21T12:20:01;25.00;90.50
57108;DHT22;42987;52.916;6.542;2022-08-21T12:22:40;24.80;90.40
57108;DHT22;42987;52.916;6.542;2022-08-21T12:25:15;24.70;93.90
57108;DHT22;42987;52.916;6.542;2022-08-21T12:27:52;24.50;93.30
57108;DHT22;42987;52.916;6.542;2022-08-21T12:33:02;24.30;92.90
57108;DHT22;42987;52.916;6.542;2022-08-21T12:35:36;24.40;93.40
57108;DHT22;42987;52.916;6.542;2022-08-21T12:38:49;24.40;93.70
57108;DHT22;42987;52.916;6.542;2022-08-21T12:41:16;24.40;94.80
57108;DHT22;42987;52.916;6.542;2022-08-21T12:43:57;24.40;94.80
57108;DHT22;42987;52.916;6.542;2022-08-21T12:46:34;24.40;95.40
57108;DHT22;42987;52.916;6.542;2022-08-21T12:49:12;24.40;95.20
57108;DHT22;42987;52.916;6.542;2022-08-21T12:51:55;24.30;95.00
57108;DHT22;42987;52.916;6.542;2022-08-21T12:54:27;24.20;94.60
57108;DHT22;42987;52.916;6.542;2022-08-21T12:57:05;24.20;96.00
57108;DHT22;42987;52.916;6.542;2022-08-21T12:59:32;24.30;96.50
57108;DHT22;42987;52.916;6.542;2022-08-21T13:02:03;24.50;97.10
57108;DHT22;42987;52.916;6.542;2022-08-21T13:04:39;24.80;95.70
57108;DHT22;42987;52.916;6.542;2022-08-21T13:07:13;24.90;95.20
57108;DHT22;42987;52.916;6.542;2022-08-21T13:09:55;24.90;94.00
57108;DHT22;42987;52.916;6.542;2022-08-21T13:12:22;24.90;94.40
57108;DHT22;42987;52.916;6.542;2022-08-21T13:14:50;25.00;95.40
57108;DHT22;42987;52.916;6.542;2022-08-21T13:17:19;25.20;97.90
57108;DHT22;42987;52.916;6.542;2022-08-21T13:20:00;25.30;98.50
57108;DHT22;42987;52.916;6.542;2022-08-21T13:22:32;25.40;98.60
57108;DHT22;42987;52.916;6.542;2022-08-21T13:25:10;25.30;97.10
57108;DHT22;42987;52.916;6.542;2022-08-21T13:27:36;25.20;97.90
57108;DHT22;42987;52.916;6.542;2022-08-21T13:32:35;25.30;97.70
57108;DHT22;42987;52.916;6.542;2022-08-21T13:35:21;25.20;97.10
57108;DHT22;42987;52.916;6.542;2022-08-21T13:37:49;25.10;97.90
57108;DHT22;42987;52.916;6.542;2022-08-21T13:40:31;24.90;98.40
57108;DHT22;42987;52.916;6.542;2022-08-21T13:42:59;25.00;99.90
57108;DHT22;42987;52.916;6.542;2022-08-21T13:45:31;25.10;98.20
57108;DHT22;42987;52.916;6.542;2022-08-21T13:48:01;25.10;96.60
57108;DHT22;42987;52.916;6.542;2022-08-21T13:50:27;25.10;96.80
57108;DHT22;42987;52.916;6.542;2022-08-21T13:52:57;25.00;98.40
57108;DHT22;42987;52.916;6.542;2022-08-21T13:55:24;24.90;99.90
57108;DHT22;42987;52.916;6.542;2022-08-21T13:58:01;25.00;99.90
57108;DHT22;42987;52.916;6.542;2022-08-21T14:00:29;25.10;99.90
57108;DHT22;42987;52.916;6.542;2022-08-21T14:03:06;25.10;99.20
57108;DHT22;42987;52.916;6.542;2022-08-21T14:05:35;24.90;98.60
57108;DHT22;42987;52.916;6.542;2022-08-21T14:08:13;24.80;98.40
57108;DHT22;42987;52.916;6.542;2022-08-21T14:10:45;24.70;98.10
57108;DHT22;42987;52.916;6.542;2022-08-21T14:13:40;24.60;98.50
57108;DHT22;42987;52.916;6.542;2022-08-21T14:16:20;24.50;96.70
57108;DHT22;42987;52.916;6.542;2022-08-21T14:18:53;24.40;98.30
57108;DHT22;42987;52.916;6.542;2022-08-21T14:21:45;24.20;97.50
57108;DHT22;42987;52.916;6.542;2022-08-21T14:24:27;24.10;99.50
57108;DHT22;42987;52.916;6.542;2022-08-21T14:27:06;24.00;99.90
57108;DHT22;42987;52.916;6.542;2022-08-21T14:29:35;24.00;99.90
57108;DHT22;42987;52.916;6.542;2022-08-21T14:32:35;24.00;99.50
57108;DHT22;42987;52.916;6.542;2022-08-21T14:34:56;23.90;98.00
57108;DHT22;42987;52.916;6.542;2022-08-21T14:37:25;23.80;98.50
57108;DHT22;42987;52.916;6.542;2022-08-21T14:39:51;23.70;98.60
57108;DHT22;42987;52.916;6.542;2022-08-21T14:42:17;23.60;99.90
57108;DHT22;42987;52.916;6.542;2022-08-21T14:44:43;23.80;99.90
57108;DHT22;42987;52.916;6.542;2022-08-21T14:47:09;23.90;98.00
57108;DHT22;42987;52.916;6.542;2022-08-21T14:49:36;24.00;97.80
57108;DHT22;42987;52.916;6.542;2022-08-21T14:52:02;24.10;97.10
57108;DHT22;42987;52.916;6.542;2022-08-21T14:54:30;24.10;96.30
57108;DHT22;42987;52.916;6.542;2022-08-21T14:56:57;24.10;96.60
57108;DHT22;42987;52.916;6.542;2022-08-21T14:59:25;24.00;96.80
57108;DHT22;42987;52.916;6.542;2022-08-21T15:01:51;24.00;98.40
57108;DHT22;42987;52.916;6.542;2022-08-21T15:04:17;23.90;98.60
57108;DHT22;42987;52.916;6.542;2022-08-21T15:06:47;23.80;98.00
57108;DHT22;42987;52.916;6.542;2022-08-21T15:09:12;23.90;97.30
57108;DHT22;42987;52.916;6.542;2022-08-21T15:11:38;23.90;98.30
57108;DHT22;42987;52.916;6.542;2022-08-21T15:14:07;23.90;97.90
57108;DHT22;42987;52.916;6.542;2022-08-21T15:16:37;24.00;98.70
57108;DHT22;42987;52.916;6.542;2022-08-21T15:19:03;24.00;97.80
57108;DHT22;42987;52.916;6.542;2022-08-21T15:21:37;23.90;97.70
57108;DHT22;42987;52.916;6.542;2022-08-21T15:24:03;23.90;98.00
57108;DHT22;42987;52.916;6.542;2022-08-21T15:26:29;23.90;99.10
57108;DHT22;42987;52.916;6.542;2022-08-21T15:28:55;24.00;99.90
57108;DHT22;42987;52.916;6.542;2022-08-21T15:31:21;24.00;99.90
57108;DHT22;42987;52.916;6.542;2022-08-21T15:33:47;24.00;99.90
57108;DHT22;42987;52.916;6.542;2022-08-21T15:36:13;24.00;99.90
57108;DHT22;42987;52.916;6.542;2022-08-21T15:38:38;24.00;99.90
57108;DHT22;42987;52.916;6.542;2022-08-21T15:41:04;23.90;99.90
57108;DHT22;42987;52.916;6.542;2022-08-21T15:43:47;24.00;99.90
57108;DHT22;42987;52.916;6.542;2022-08-21T15:46:16;24.00;99.80
57108;DHT22;42987;52.916;6.542;2022-08-21T15:48:43;24.10;99.90
57108;DHT22;42987;52.916;6.542;2022-08-21T15:51:12;24.20;99.90
57108;DHT22;42987;52.916;6.542;2022-08-21T15:53:38;24.30;99.90
57108;DHT22;42987;52.916;6.542;2022-08-21T15:56:21;24.40;98.90
57108;DHT22;42987;52.916;6.542;2022-08-21T15:58:49;24.40;98.30
57108;DHT22;42987;52.916;6.542;2022-08-21T16:01:16;24.40;97.20
57108;DHT22;42987;52.916;6.542;2022-08-21T16:03:47;24.40;96.90
57108;DHT22;42987;52.916;6.542;2022-08-21T16:06:13;24.40;96.10
57108;DHT22;42987;52.916;6.542;2022-08-21T16:08:39;24.30;95.50
57108;DHT22;42987;52.916;6.542;2022-08-21T16:11:11;24.10;95.30
57108;DHT22;42987;52.916;6.542;2022-08-21T16:13:40;24.00;96.00
57108;DHT22;42987;52.916;6.542;2022-08-21T16:16:12;23.90;96.60
57108;DHT22;42987;52.916;6.542;2022-08-21T16:18:39;23.90;97.40
57108;DHT22;42987;52.916;6.542;2022-08-21T16:21:08;23.80;96.30
57108;DHT22;42987;52.916;6.542;2022-08-21T16:23:35;23.70;95.80
57108;DHT22;42987;52.916;6.542;2022-08-21T16:26:04;23.60;96.10
57108;DHT22;42987;52.916;6.542;2022-08-21T16:28:31;23.50;94.90
57108;DHT22;42987;52.916;6.542;2022-08-21T16:30:59;23.40;94.70
57108;DHT22;42987;52.916;6.542;2022-08-21T16:33:39;23.40;96.00
57108;DHT22;42987;52.916;6.542;2022-08-21T16:36:08;23.30;96.60
57108;DHT22;42987;52.916;6.542;2022-08-21T16:38:35;23.30;97.50
57108;DHT22;42987;52.916;6.542;2022-08-21T16:41:04;23.30;98.00
57108;DHT22;42987;52.916;6.542;2022-08-21T16:43:32;23.30;98.20
57108;DHT22;42987;52.916;6.542;2022-08-21T16:45:59;23.30;97.90
57108;DHT22;42987;52.916;6.542;2022-08-21T16:48:26;23.20;97.70
57108;DHT22;42987;52.916;6.542;2022-08-21T16:50:55;23.20;97.30
57108;DHT22;42987;52.916;6.542;2022-08-21T16:53:21;23.10;97.10
57108;DHT22;42987;52.916;6.542;2022-08-21T16:56:00;23.10;96.80
57108;DHT22;42987;52.916;6.542;2022-08-21T16:58:37;23.00;96.70
57108;DHT22;42987;52.916;6.542;2022-08-21T17:01:11;22.90;97.50
57108;DHT22;42987;52.916;6.542;2022-08-21T17:03:48;22.80;96.70
57108;DHT22;42987;52.916;6.542;2022-08-21T17:06:19;22.80;95.90
57108;DHT22;42987;52.916;6.542;2022-08-21T17:08:57;22.70;96.70
57108;DHT22;42987;52.916;6.542;2022-08-21T17:11:52;22.60;97.60
57108;DHT22;42987;52.916;6.542;2022-08-21T17:14:21;22.60;98.10
57108;DHT22;42987;52.916;6.542;2022-08-21T17:16:49;22.50;98.20
57108;DHT22;42987;52.916;6.542;2022-08-21T17:19:16;22.50;99.00
57108;DHT22;42987;52.916;6.542;2022-08-21T17:21:42;22.40;98.80
57108;DHT22;42987;52.916;6.542;2022-08-21T17:24:08;22.40;99.20
57108;DHT22;42987;52.916;6.542;2022-08-21T17:26:37;22.30;99.70
57108;DHT22;42987;52.916;6.542;2022-08-21T17:29:03;22.20;99.90
57108;DHT22;42987;52.916;6.542;2022-08-21T17:31:36;22.20;99.90
57108;DHT22;42987;52.916;6.542;2022-08-21T17:34:03;22.10;99.90
57108;DHT22;42987;52.916;6.542;2022-08-21T17:36:31;22.00;99.90
57108;DHT22;42987;52.916;6.542;2022-08-21T17:38:57;21.90;99.90
57108;DHT22;42987;52.916;6.542;2022-08-21T17:41:24;21.90;99.90
57108;DHT22;42987;52.916;6.542;2022-08-21T17:43:51;21.80;99.90
57108;DHT22;42987;52.916;6.542;2022-08-21T17:46:26;21.80;99.90
57108;DHT22;42987;52.916;6.542;2022-08-21T17:48:53;21.80;99.90
57108;DHT22;42987;52.916;6.542;2022-08-21T17:51:22;21.70;99.90